Accueil
METAR-TAF:

METAR-TAF

Aéroports :

Plaisance, Italie

latitude: 44-55N, longitude: 009-44E, altitude: 134 m

Observation

Le bulletin a été fait il y a 5 heures et 24 minutes, à 17:55 UTC
Vent 5 kt de est/nord-est, variant entre nord-est et est/sud-est
Température 6°C
Humidité 100%
Pression 1012 hPa
Visibilité: 3500 m
Nuages épars à une hauteur de 500 ft
Nuages fragmentés à une hauteur de 1800 ft
pluie faible, brume

METAR: LIMS 221755Z 07005KT 040V110 3500 -RA BR SCT005 BKN018 06/06 Q1012 RMK OVC VIS MIN 3500 WIND THR30 04006KT YLO

Heure: 01:19 (23:19 UTC)


TAF: absent

Observations et prévisions météorologiques de plus de 4000 aéroports (messages METAR et TAF).

Les stations disponibles sont représentées par des disques jaunes et rouges sur la carte.

Passer la souris dessus pour voir le nom de la station.

Cliquer dessus pour voir les observations et prévisions météorologiques.

Pour changer de carte: cliquez sur les boutons verts avec une croix noire pour zoomer, sur le bouton vert avec un tiret pour effectuer un zoom arrière, ou sur les flèches vertes pour les cartes adjacentes.


METAR-TAF: